sensor_id;sensor_type;location;lat;lon;timestamp;pressure;altitude;pressure_sealevel;temperature;humidity
141;BME280;65;48.778;9.160;2023-11-25T00:01:28;97684.25;;;1.99;100.00
141;BME280;65;48.778;9.160;2023-11-25T00:04:13;97673.66;;;2.04;100.00
141;BME280;65;48.778;9.160;2023-11-25T00:06:59;97680.41;;;2.09;100.00
141;BME280;65;48.778;9.160;2023-11-25T00:09:45;97689.25;;;2.05;100.00
141;BME280;65;48.778;9.160;2023-11-25T00:12:31;97685.78;;;2.05;100.00
141;BME280;65;48.778;9.160;2023-11-25T00:15:17;97678.19;;;1.99;100.00
141;BME280;65;48.778;9.160;2023-11-25T00:18:02;97680.00;;;1.97;100.00
141;BME280;65;48.778;9.160;2023-11-25T00:20:48;97680.84;;;1.97;100.00
141;BME280;65;48.778;9.160;2023-11-25T00:23:34;97686.06;;;1.97;100.00
141;BME280;65;48.778;9.160;2023-11-25T00:26:20;97697.19;;;2.02;100.00
141;BME280;65;48.778;9.160;2023-11-25T00:29:06;97705.00;;;2.02;100.00
141;BME280;65;48.778;9.160;2023-11-25T00:31:55;97702.28;;;2.05;100.00
141;BME280;65;48.778;9.160;2023-11-25T00:34:40;97715.34;;;2.04;100.00
141;BME280;65;48.778;9.160;2023-11-25T00:37:26;97718.75;;;2.06;100.00
141;BME280;65;48.778;9.160;2023-11-25T00:40:12;97726.34;;;2.12;100.00
141;BME280;65;48.778;9.160;2023-11-25T00:43:01;97732.34;;;2.14;100.00
141;BME280;65;48.778;9.160;2023-11-25T00:45:47;97724.66;;;2.11;100.00
141;BME280;65;48.778;9.160;2023-11-25T00:48:34;97740.91;;;2.17;100.00
141;BME280;65;48.778;9.160;2023-11-25T00:51:21;97737.41;;;2.18;100.00
141;BME280;65;48.778;9.160;2023-11-25T00:54:06;97752.91;;;2.21;100.00
141;BME280;65;48.778;9.160;2023-11-25T00:56:53;97759.84;;;2.22;100.00
141;BME280;65;48.778;9.160;2023-11-25T00:59:39;97767.78;;;2.19;100.00
141;BME280;65;48.778;9.160;2023-11-25T01:02:25;97779.66;;;2.27;100.00
141;BME280;65;48.778;9.160;2023-11-25T01:05:13;97773.56;;;2.28;100.00
141;BME280;65;48.778;9.160;2023-11-25T01:07:59;97790.81;;;2.32;100.00
141;BME280;65;48.778;9.160;2023-11-25T01:10:44;97779.63;;;2.28;100.00
141;BME280;65;48.778;9.160;2023-11-25T01:13:30;97789.13;;;2.29;100.00
141;BME280;65;48.778;9.160;2023-11-25T01:16:17;97798.88;;;2.24;100.00
141;BME280;65;48.778;9.160;2023-11-25T01:19:03;97813.50;;;2.28;100.00
141;BME280;65;48.778;9.160;2023-11-25T01:21:49;97816.16;;;2.27;100.00
141;BME280;65;48.778;9.160;2023-11-25T01:24:34;97812.19;;;2.16;100.00
141;BME280;65;48.778;9.160;2023-11-25T01:27:20;97820.00;;;2.16;100.00
141;BME280;65;48.778;9.160;2023-11-25T01:30:09;97828.28;;;2.04;100.00
141;BME280;65;48.778;9.160;2023-11-25T01:32:54;97830.41;;;1.93;100.00
141;BME280;65;48.778;9.160;2023-11-25T01:35:40;97834.88;;;1.89;100.00
141;BME280;65;48.778;9.160;2023-11-25T01:38:27;97840.13;;;1.88;100.00
141;BME280;65;48.778;9.160;2023-11-25T01:41:13;97841.94;;;1.86;100.00
141;BME280;65;48.778;9.160;2023-11-25T01:43:59;97850.75;;;1.82;100.00
141;BME280;65;48.778;9.160;2023-11-25T01:46:45;97848.84;;;1.87;100.00
141;BME280;65;48.778;9.160;2023-11-25T01:49:32;97860.88;;;1.91;100.00
141;BME280;65;48.778;9.160;2023-11-25T01:52:18;97862.38;;;1.98;100.00
141;BME280;65;48.778;9.160;2023-11-25T01:58:55;97870.28;;;1.95;100.00
141;BME280;65;48.778;9.160;2023-11-25T02:04:24;97867.88;;;1.89;100.00
141;BME280;65;48.778;9.160;2023-11-25T02:07:38;97856.66;;;1.87;100.00
141;BME280;65;48.778;9.160;2023-11-25T02:17:16;97886.56;;;2.02;100.00
141;BME280;65;48.778;9.160;2023-11-25T02:20:29;97895.94;;;2.07;100.00
141;BME280;65;48.778;9.160;2023-11-25T02:23:49;97896.19;;;2.00;100.00
141;BME280;65;48.778;9.160;2023-11-25T02:27:03;97904.00;;;2.00;100.00
141;BME280;65;48.778;9.160;2023-11-25T02:43:32;97903.28;;;1.68;100.00
141;BME280;65;48.778;9.160;2023-11-25T03:05:12;97946.59;;;1.44;100.00
141;BME280;65;48.778;9.160;2023-11-25T03:11:42;97937.88;;;1.45;100.00
141;BME280;65;48.778;9.160;2023-11-25T03:20:59;97962.38;;;1.66;100.00
141;BME280;65;48.778;9.160;2023-11-25T03:23:52;97971.88;;;1.69;100.00
141;BME280;65;48.778;9.160;2023-11-25T03:26:38;97969.22;;;1.70;100.00
141;BME280;65;48.778;9.160;2023-11-25T03:36:14;98000.47;;;1.70;100.00
141;BME280;65;48.778;9.160;2023-11-25T03:45:33;98007.97;;;1.81;100.00
141;BME280;65;48.778;9.160;2023-11-25T03:50:59;98008.63;;;1.87;100.00
141;BME280;65;48.778;9.160;2023-11-25T03:53:57;98016.59;;;1.83;100.00
141;BME280;65;48.778;9.160;2023-11-25T03:56:58;98008.88;;;1.80;100.00
141;BME280;65;48.778;9.160;2023-11-25T03:59:50;98006.47;;;1.72;100.00
141;BME280;65;48.778;9.160;2023-11-25T04:02:47;98015.44;;;1.64;100.00
141;BME280;65;48.778;9.160;2023-11-25T04:05:42;98018.94;;;1.63;100.00
141;BME280;65;48.778;9.160;2023-11-25T04:08:32;98012.88;;;1.62;100.00
141;BME280;65;48.778;9.160;2023-11-25T04:11:22;98023.25;;;1.64;100.00
141;BME280;65;48.778;9.160;2023-11-25T04:14:09;98027.66;;;1.62;100.00
141;BME280;65;48.778;9.160;2023-11-25T04:16:59;98033.53;;;1.68;100.00
141;BME280;65;48.778;9.160;2023-11-25T04:19:46;98043.00;;;1.71;100.00
141;BME280;65;48.778;9.160;2023-11-25T04:22:33;98037.69;;;1.75;100.00
141;BME280;65;48.778;9.160;2023-11-25T04:25:22;98044.59;;;1.76;100.00
141;BME280;65;48.778;9.160;2023-11-25T04:28:11;98047.16;;;1.78;100.00
141;BME280;65;48.778;9.160;2023-11-25T04:31:03;98059.22;;;1.80;100.00
141;BME280;65;48.778;9.160;2023-11-25T04:33:49;98056.47;;;1.85;100.00
141;BME280;65;48.778;9.160;2023-11-25T04:36:36;98062.63;;;1.82;100.00
141;BME280;65;48.778;9.160;2023-11-25T04:39:26;98064.31;;;1.85;100.00
141;BME280;65;48.778;9.160;2023-11-25T04:42:12;98059.28;;;1.79;100.00
141;BME280;65;48.778;9.160;2023-11-25T04:44:59;98068.03;;;1.76;100.00
141;BME280;65;48.778;9.160;2023-11-25T04:47:48;98069.84;;;1.73;100.00
141;BME280;65;48.778;9.160;2023-11-25T04:50:37;98069.38;;;1.60;100.00
141;BME280;65;48.778;9.160;2023-11-25T04:53:31;98065.50;;;1.44;100.00
141;BME280;65;48.778;9.160;2023-11-25T04:56:23;98068.50;;;1.30;100.00
141;BME280;65;48.778;9.160;2023-11-25T04:59:15;98061.09;;;1.16;100.00
141;BME280;65;48.778;9.160;2023-11-25T05:02:03;98070.69;;;1.13;100.00
141;BME280;65;48.778;9.160;2023-11-25T05:04:51;98069.00;;;1.12;100.00
141;BME280;65;48.778;9.160;2023-11-25T05:07:51;98069.72;;;1.18;100.00
141;BME280;65;48.778;9.160;2023-11-25T05:10:39;98065.44;;;1.16;100.00
141;BME280;65;48.778;9.160;2023-11-25T05:13:30;98062.72;;;1.20;100.00
141;BME280;65;48.778;9.160;2023-11-25T05:16:24;98079.00;;;1.27;100.00
141;BME280;65;48.778;9.160;2023-11-25T05:19:18;98088.25;;;1.37;100.00
141;BME280;65;48.778;9.160;2023-11-25T05:25:21;98100.09;;;1.18;100.00
141;BME280;65;48.778;9.160;2023-11-25T05:28:09;98095.25;;;1.03;100.00
141;BME280;65;48.778;9.160;2023-11-25T05:30:55;98094.41;;;1.02;100.00
141;BME280;65;48.778;9.160;2023-11-25T05:34:02;98078.03;;;0.99;100.00
141;BME280;65;48.778;9.160;2023-11-25T05:36:51;98078.97;;;0.96;100.00
141;BME280;65;48.778;9.160;2023-11-25T05:44:53;98081.19;;;0.77;100.00
141;BME280;65;48.778;9.160;2023-11-25T05:47:45;98086.25;;;0.83;100.00
141;BME280;65;48.778;9.160;2023-11-25T05:50:33;98093.63;;;0.66;100.00
141;BME280;65;48.778;9.160;2023-11-25T05:56:02;98106.63;;;0.66;100.00
141;BME280;65;48.778;9.160;2023-11-25T05:58:52;98101.63;;;0.58;100.00
141;BME280;65;48.778;9.160;2023-11-25T06:01:41;98101.72;;;0.54;100.00
141;BME280;65;48.778;9.160;2023-11-25T06:04:29;98095.66;;;0.53;100.00
141;BME280;65;48.778;9.160;2023-11-25T06:07:17;98092.09;;;0.57;100.00
141;BME280;65;48.778;9.160;2023-11-25T06:10:10;98100.63;;;0.64;100.00
141;BME280;65;48.778;9.160;2023-11-25T06:12:59;98097.94;;;0.67;100.00
141;BME280;65;48.778;9.160;2023-11-25T06:15:46;98102.16;;;0.71;100.00
141;BME280;65;48.778;9.160;2023-11-25T06:18:39;98085.34;;;0.84;100.00
141;BME280;65;48.778;9.160;2023-11-25T06:21:30;98088.69;;;0.89;100.00
141;BME280;65;48.778;9.160;2023-11-25T06:24:18;98092.09;;;0.91;100.00
141;BME280;65;48.778;9.160;2023-11-25T06:27:05;98097.22;;;0.94;100.00
141;BME280;65;48.778;9.160;2023-11-25T06:30:03;98097.75;;;1.07;100.00
141;BME280;65;48.778;9.160;2023-11-25T06:32:50;98094.63;;;1.27;100.00
141;BME280;65;48.778;9.160;2023-11-25T06:35:39;98080.53;;;1.34;100.00
141;BME280;65;48.778;9.160;2023-11-25T06:38:51;98085.72;;;1.65;100.00
141;BME280;65;48.778;9.160;2023-11-25T06:42:23;98100.66;;;1.58;100.00
141;BME280;65;48.778;9.160;2023-11-25T06:45:18;98105.03;;;1.58;100.00
141;BME280;65;48.778;9.160;2023-11-25T06:51:34;98096.41;;;1.56;100.00
141;BME280;65;48.778;9.160;2023-11-25T06:54:26;98110.06;;;1.64;100.00
141;BME280;65;48.778;9.160;2023-11-25T06:57:18;98108.25;;;1.66;100.00
141;BME280;65;48.778;9.160;2023-11-25T07:00:08;98112.66;;;1.64;100.00
141;BME280;65;48.778;9.160;2023-11-25T07:02:57;98114.41;;;1.64;100.00
141;BME280;65;48.778;9.160;2023-11-25T07:05:44;98116.84;;;1.70;100.00
141;BME280;65;48.778;9.160;2023-11-25T07:08:31;98114.19;;;1.71;100.00
141;BME280;65;48.778;9.160;2023-11-25T07:11:18;98114.84;;;1.79;100.00
141;BME280;65;48.778;9.160;2023-11-25T07:14:04;98118.34;;;1.78;100.00
141;BME280;65;48.778;9.160;2023-11-25T07:16:53;98118.38;;;1.77;100.00
141;BME280;65;48.778;9.160;2023-11-25T07:19:40;98124.50;;;1.76;100.00
141;BME280;65;48.778;9.160;2023-11-25T07:22:30;98110.66;;;1.74;100.00
141;BME280;65;48.778;9.160;2023-11-25T07:25:16;98114.56;;;1.88;100.00
141;BME280;65;48.778;9.160;2023-11-25T07:28:05;98115.13;;;1.98;100.00
141;BME280;65;48.778;9.160;2023-11-25T07:30:56;98117.88;;;1.94;100.00
141;BME280;65;48.778;9.160;2023-11-25T07:33:43;98117.03;;;1.93;100.00
141;BME280;65;48.778;9.160;2023-11-25T07:36:29;98121.16;;;2.00;100.00
141;BME280;65;48.778;9.160;2023-11-25T07:39:18;98129.69;;;2.05;100.00
141;BME280;65;48.778;9.160;2023-11-25T07:42:13;98135.75;;;2.06;100.00
141;BME280;65;48.778;9.160;2023-11-25T07:45:04;98135.03;;;2.01;100.00
141;BME280;65;48.778;9.160;2023-11-25T07:47:58;98140.13;;;2.05;100.00
141;BME280;65;48.778;9.160;2023-11-25T07:50:46;98141.50;;;2.17;100.00
141;BME280;65;48.778;9.160;2023-11-25T07:53:32;98153.63;;;2.18;100.00
141;BME280;65;48.778;9.160;2023-11-25T07:56:18;98157.00;;;2.21;100.00
141;BME280;65;48.778;9.160;2023-11-25T07:59:04;98149.75;;;2.31;100.00
141;BME280;65;48.778;9.160;2023-11-25T08:01:50;98149.53;;;2.39;100.00
141;BME280;65;48.778;9.160;2023-11-25T08:04:37;98155.78;;;2.33;100.00
141;BME280;65;48.778;9.160;2023-11-25T08:07:22;98160.00;;;2.37;100.00
141;BME280;65;48.778;9.160;2023-11-25T08:10:09;98156.31;;;2.44;100.00
141;BME280;65;48.778;9.160;2023-11-25T08:12:55;98166.00;;;2.41;100.00
141;BME280;65;48.778;9.160;2023-11-25T08:15:41;98159.88;;;2.42;100.00
141;BME280;65;48.778;9.160;2023-11-25T08:18:27;98159.25;;;2.34;100.00
141;BME280;65;48.778;9.160;2023-11-25T08:21:14;98158.41;;;2.33;100.00
141;BME280;65;48.778;9.160;2023-11-25T08:23:59;98161.88;;;2.34;100.00
141;BME280;65;48.778;9.160;2023-11-25T08:26:46;98162.47;;;2.42;100.00
141;BME280;65;48.778;9.160;2023-11-25T08:29:32;98162.34;;;2.46;100.00
141;BME280;65;48.778;9.160;2023-11-25T08:32:18;98160.47;;;2.50;100.00
141;BME280;65;48.778;9.160;2023-11-25T08:35:04;98156.97;;;2.51;100.00
141;BME280;65;48.778;9.160;2023-11-25T08:37:52;98154.94;;;2.61;100.00
141;BME280;65;48.778;9.160;2023-11-25T08:40:38;98163.06;;;2.78;100.00
141;BME280;65;48.778;9.160;2023-11-25T08:43:25;98158.31;;;2.91;100.00
141;BME280;65;48.778;9.160;2023-11-25T08:46:13;98156.09;;;3.05;100.00
141;BME280;65;48.778;9.160;2023-11-25T08:49:01;98156.97;;;3.30;100.00
141;BME280;65;48.778;9.160;2023-11-25T08:51:47;98163.34;;;3.22;100.00
141;BME280;65;48.778;9.160;2023-11-25T08:54:36;98163.72;;;3.36;100.00
141;BME280;65;48.778;9.160;2023-11-25T08:57:40;98158.88;;;3.25;100.00
141;BME280;65;48.778;9.160;2023-11-25T09:00:26;98158.41;;;3.14;100.00
141;BME280;65;48.778;9.160;2023-11-25T09:03:14;98162.53;;;2.95;100.00
141;BME280;65;48.778;9.160;2023-11-25T09:06:00;98165.03;;;2.98;100.00
141;BME280;65;48.778;9.160;2023-11-25T09:09:16;98176.13;;;3.04;100.00
141;BME280;65;48.778;9.160;2023-11-25T09:12:17;98177.16;;;3.25;100.00
141;BME280;65;48.778;9.160;2023-11-25T09:15:08;98161.84;;;3.14;100.00
141;BME280;65;48.778;9.160;2023-11-25T09:17:56;98156.00;;;3.33;100.00
141;BME280;65;48.778;9.160;2023-11-25T09:20:42;98153.06;;;3.67;100.00
141;BME280;65;48.778;9.160;2023-11-25T09:23:28;98146.59;;;3.77;100.00
141;BME280;65;48.778;9.160;2023-11-25T09:26:14;98149.25;;;3.75;100.00
141;BME280;65;48.778;9.160;2023-11-25T09:29:00;98139.38;;;3.84;100.00
141;BME280;65;48.778;9.160;2023-11-25T09:31:46;98137.94;;;3.98;100.00
141;BME280;65;48.778;9.160;2023-11-25T09:34:32;98137.44;;;3.65;100.00
141;BME280;65;48.778;9.160;2023-11-25T09:37:26;98128.84;;;3.62;100.00
141;BME280;65;48.778;9.160;2023-11-25T09:40:12;98136.47;;;3.43;100.00
141;BME280;65;48.778;9.160;2023-11-25T09:43:06;98135.38;;;3.50;100.00
141;BME280;65;48.778;9.160;2023-11-25T09:45:53;98128.44;;;3.49;100.00
141;BME280;65;48.778;9.160;2023-11-25T09:51:21;98118.63;;;3.56;100.00
141;BME280;65;48.778;9.160;2023-11-25T09:54:20;98114.78;;;3.66;100.00
141;BME280;65;48.778;9.160;2023-11-25T09:57:26;98121.34;;;3.99;100.00
141;BME280;65;48.778;9.160;2023-11-25T10:00:18;98117.50;;;3.86;100.00
141;BME280;65;48.778;9.160;2023-11-25T10:03:07;98114.34;;;4.00;100.00
141;BME280;65;48.778;9.160;2023-11-25T10:06:05;98108.69;;;4.12;100.00
141;BME280;65;48.778;9.160;2023-11-25T10:08:51;98101.50;;;4.39;100.00
141;BME280;65;48.778;9.160;2023-11-25T10:11:38;98100.53;;;4.41;100.00
141;BME280;65;48.778;9.160;2023-11-25T10:14:28;98097.41;;;4.54;97.57
141;BME280;65;48.778;9.160;2023-11-25T10:17:21;98106.84;;;4.58;100.00
141;BME280;65;48.778;9.160;2023-11-25T10:20:09;98088.13;;;4.68;95.85
141;BME280;65;48.778;9.160;2023-11-25T10:22:56;98094.06;;;4.72;96.82
141;BME280;65;48.778;9.160;2023-11-25T10:25:44;98089.81;;;4.48;96.63
141;BME280;65;48.778;9.160;2023-11-25T10:28:34;98089.09;;;4.44;96.91
141;BME280;65;48.778;9.160;2023-11-25T10:31:22;98095.91;;;4.48;99.47
141;BME280;65;48.778;9.160;2023-11-25T10:34:09;98089.22;;;4.63;96.67
141;BME280;65;48.778;9.160;2023-11-25T10:36:59;98087.34;;;4.87;94.64
141;BME280;65;48.778;9.160;2023-11-25T10:39:44;98084.84;;;4.63;95.06
141;BME280;65;48.778;9.160;2023-11-25T10:42:30;98081.19;;;4.67;95.74
141;BME280;65;48.778;9.160;2023-11-25T10:45:19;98076.03;;;4.86;96.13
141;BME280;65;48.778;9.160;2023-11-25T10:48:07;98059.19;;;4.92;92.84
141;BME280;65;48.778;9.160;2023-11-25T10:50:53;98049.91;;;5.05;95.56
141;BME280;65;48.778;9.160;2023-11-25T10:53:42;98046.16;;;5.11;90.01
141;BME280;65;48.778;9.160;2023-11-25T10:56:31;98037.31;;;5.33;91.49
141;BME280;65;48.778;9.160;2023-11-25T10:59:20;98032.28;;;5.48;90.03
141;BME280;65;48.778;9.160;2023-11-25T11:02:12;98032.94;;;5.53;85.63
141;BME280;65;48.778;9.160;2023-11-25T11:05:08;98037.03;;;5.39;86.07
141;BME280;65;48.778;9.160;2023-11-25T11:08:00;98038.72;;;5.22;87.27
141;BME280;65;48.778;9.160;2023-11-25T11:11:04;98047.59;;;5.38;84.89
141;BME280;65;48.778;9.160;2023-11-25T11:14:12;98036.69;;;5.47;86.22
141;BME280;65;48.778;9.160;2023-11-25T11:19:58;98034.97;;;5.07;89.34
141;BME280;65;48.778;9.160;2023-11-25T11:22:44;98034.44;;;5.19;90.44
141;BME280;65;48.778;9.160;2023-11-25T11:25:36;98029.00;;;5.03;91.52
141;BME280;65;48.778;9.160;2023-11-25T11:28:39;98034.84;;;5.10;91.02
141;BME280;65;48.778;9.160;2023-11-25T11:34:31;98030.81;;;5.42;89.87
141;BME280;65;48.778;9.160;2023-11-25T11:37:17;98015.13;;;5.22;90.11
141;BME280;65;48.778;9.160;2023-11-25T11:40:04;98031.84;;;4.79;92.36
141;BME280;65;48.778;9.160;2023-11-25T11:42:54;98034.06;;;4.67;95.79
141;BME280;65;48.778;9.160;2023-11-25T11:45:41;98040.53;;;4.37;96.48
141;BME280;65;48.778;9.160;2023-11-25T11:48:30;98045.91;;;4.12;100.00
141;BME280;65;48.778;9.160;2023-11-25T11:51:28;98040.97;;;3.83;100.00
141;BME280;65;48.778;9.160;2023-11-25T11:54:23;98044.59;;;3.78;100.00
141;BME280;65;48.778;9.160;2023-11-25T11:57:10;98039.91;;;3.65;100.00
141;BME280;65;48.778;9.160;2023-11-25T12:00:07;98039.34;;;3.57;100.00
141;BME280;65;48.778;9.160;2023-11-25T12:03:08;98039.22;;;3.36;100.00
141;BME280;65;48.778;9.160;2023-11-25T12:05:58;98029.84;;;3.31;100.00
141;BME280;65;48.778;9.160;2023-11-25T12:08:43;98024.66;;;3.29;100.00
141;BME280;65;48.778;9.160;2023-11-25T12:11:35;98026.41;;;3.54;100.00
141;BME280;65;48.778;9.160;2023-11-25T12:17:48;98010.81;;;3.74;100.00
141;BME280;65;48.778;9.160;2023-11-25T12:20:36;98021.38;;;3.71;100.00
141;BME280;65;48.778;9.160;2023-11-25T12:23:23;98016.63;;;3.80;100.00
141;BME280;65;48.778;9.160;2023-11-25T12:26:10;98012.09;;;3.86;100.00
141;BME280;65;48.778;9.160;2023-11-25T12:29:00;98008.50;;;3.88;100.00
141;BME280;65;48.778;9.160;2023-11-25T12:31:46;97996.28;;;3.67;100.00
141;BME280;65;48.778;9.160;2023-11-25T12:34:32;98003.31;;;3.65;100.00
141;BME280;65;48.778;9.160;2023-11-25T12:37:18;97992.44;;;3.75;100.00
141;BME280;65;48.778;9.160;2023-11-25T12:40:34;97988.00;;;3.56;100.00
141;BME280;65;48.778;9.160;2023-11-25T12:43:23;97993.09;;;3.59;100.00
141;BME280;65;48.778;9.160;2023-11-25T12:46:09;97991.16;;;3.64;100.00
141;BME280;65;48.778;9.160;2023-11-25T12:49:23;97986.06;;;3.61;100.00
141;BME280;65;48.778;9.160;2023-11-25T12:52:21;97995.38;;;3.68;100.00
141;BME280;65;48.778;9.160;2023-11-25T12:55:08;97986.78;;;3.64;100.00
141;BME280;65;48.778;9.160;2023-11-25T12:57:57;97986.78;;;3.86;100.00
141;BME280;65;48.778;9.160;2023-11-25T13:00:48;97990.88;;;3.93;100.00
141;BME280;65;48.778;9.160;2023-11-25T13:03:34;97977.81;;;4.15;100.00
141;BME280;65;48.778;9.160;2023-11-25T13:06:21;97973.09;;;4.01;100.00
141;BME280;65;48.778;9.160;2023-11-25T13:09:06;97967.41;;;4.13;100.00
141;BME280;65;48.778;9.160;2023-11-25T13:11:52;97970.81;;;4.16;100.00
141;BME280;65;48.778;9.160;2023-11-25T13:14:38;97967.28;;;4.17;100.00
141;BME280;65;48.778;9.160;2023-11-25T13:17:24;97949.94;;;4.14;100.00
141;BME280;65;48.778;9.160;2023-11-25T13:20:10;97950.34;;;4.05;100.00
141;BME280;65;48.778;9.160;2023-11-25T13:22:57;97954.25;;;3.93;100.00
141;BME280;65;48.778;9.160;2023-11-25T13:25:43;97948.25;;;3.91;100.00
141;BME280;65;48.778;9.160;2023-11-25T13:28:29;97939.00;;;4.04;100.00
141;BME280;65;48.778;9.160;2023-11-25T13:31:15;97938.84;;;4.09;100.00
141;BME280;65;48.778;9.160;2023-11-25T13:34:03;97939.50;;;3.92;100.00
141;BME280;65;48.778;9.160;2023-11-25T13:36:50;97949.91;;;3.72;100.00
141;BME280;65;48.778;9.160;2023-11-25T13:39:37;97945.47;;;3.74;100.00
141;BME280;65;48.778;9.160;2023-11-25T13:42:23;97950.88;;;3.69;100.00
141;BME280;65;48.778;9.160;2023-11-25T13:45:10;97953.59;;;3.66;100.00
141;BME280;65;48.778;9.160;2023-11-25T13:47:57;97948.19;;;3.71;100.00
141;BME280;65;48.778;9.160;2023-11-25T13:50:43;97952.75;;;3.66;100.00
141;BME280;65;48.778;9.160;2023-11-25T13:53:29;97956.28;;;3.65;100.00
141;BME280;65;48.778;9.160;2023-11-25T13:56:15;97961.50;;;3.65;100.00
141;BME280;65;48.778;9.160;2023-11-25T13:59:01;97962.44;;;3.64;100.00
141;BME280;65;48.778;9.160;2023-11-25T14:01:47;97964.78;;;3.70;100.00
141;BME280;65;48.778;9.160;2023-11-25T14:04:33;97959.75;;;3.65;100.00
141;BME280;65;48.778;9.160;2023-11-25T14:07:23;97958.91;;;3.65;100.00
141;BME280;65;48.778;9.160;2023-11-25T14:10:10;97965.28;;;3.58;100.00
141;BME280;65;48.778;9.160;2023-11-25T14:12:57;97965.03;;;3.64;100.00
141;BME280;65;48.778;9.160;2023-11-25T14:15:42;97960.91;;;3.58;100.00
141;BME280;65;48.778;9.160;2023-11-25T14:18:28;97958.09;;;3.63;100.00
141;BME280;65;48.778;9.160;2023-11-25T14:21:14;97963.44;;;3.60;100.00
141;BME280;65;48.778;9.160;2023-11-25T14:24:00;97966.75;;;3.65;100.00
141;BME280;65;48.778;9.160;2023-11-25T14:26:46;97956.78;;;3.74;100.00
141;BME280;65;48.778;9.160;2023-11-25T14:29:32;97967.28;;;3.73;100.00
141;BME280;65;48.778;9.160;2023-11-25T14:32:17;97958.91;;;3.65;100.00
141;BME280;65;48.778;9.160;2023-11-25T14:35:05;97958.09;;;3.63;100.00
141;BME280;65;48.778;9.160;2023-11-25T14:37:54;97952.88;;;3.63;100.00
141;BME280;65;48.778;9.160;2023-11-25T14:40:41;97951.06;;;3.65;100.00
141;BME280;65;48.778;9.160;2023-11-25T14:43:29;97962.31;;;3.67;100.00
141;BME280;65;48.778;9.160;2023-11-25T14:46:15;97960.41;;;3.70;100.00
141;BME280;65;48.778;9.160;2023-11-25T14:49:05;97947.84;;;3.80;100.00
141;BME280;65;48.778;9.160;2023-11-25T14:51:51;97952.16;;;3.81;100.00
141;BME280;65;48.778;9.160;2023-11-25T14:54:37;97945.28;;;3.78;100.00
141;BME280;65;48.778;9.160;2023-11-25T14:57:29;97943.28;;;3.85;100.00
141;BME280;65;48.778;9.160;2023-11-25T15:00:15;97940.59;;;3.87;100.00
141;BME280;65;48.778;9.160;2023-11-25T15:03:02;97937.00;;;3.89;100.00
141;BME280;65;48.778;9.160;2023-11-25T15:05:48;97932.63;;;3.90;100.00
141;BME280;65;48.778;9.160;2023-11-25T15:08:34;97930.06;;;3.88;100.00
141;BME280;65;48.778;9.160;2023-11-25T15:11:20;97931.91;;;3.86;100.00
141;BME280;65;48.778;9.160;2023-11-25T15:14:06;97929.47;;;3.81;100.00
141;BME280;65;48.778;9.160;2023-11-25T15:16:53;97944.97;;;3.86;100.00
141;BME280;65;48.778;9.160;2023-11-25T15:19:39;97939.75;;;3.86;100.00
141;BME280;65;48.778;9.160;2023-11-25T15:22:27;97945.81;;;3.87;100.00
141;BME280;65;48.778;9.160;2023-11-25T15:25:13;97947.66;;;3.85;100.00
141;BME280;65;48.778;9.160;2023-11-25T15:27:59;97943.69;;;3.74;100.00
141;BME280;65;48.778;9.160;2023-11-25T15:30:46;97950.69;;;3.74;100.00
141;BME280;65;48.778;9.160;2023-11-25T15:33:32;97955.06;;;3.73;100.00
141;BME280;65;48.778;9.160;2023-11-25T15:36:18;97947.41;;;3.69;100.00
141;BME280;65;48.778;9.160;2023-11-25T15:39:04;97944.00;;;3.67;100.00
141;BME280;65;48.778;9.160;2023-11-25T15:41:50;97947.28;;;3.72;100.00
141;BME280;65;48.778;9.160;2023-11-25T15:44:36;97948.19;;;3.71;100.00
141;BME280;65;48.778;9.160;2023-11-25T15:47:21;97945.47;;;3.74;100.00
141;BME280;65;48.778;9.160;2023-11-25T15:50:10;97942.06;;;3.72;100.00
141;BME280;65;48.778;9.160;2023-11-25T15:52:56;97950.03;;;3.69;100.00
141;BME280;65;48.778;9.160;2023-11-25T15:55:42;97952.53;;;3.72;100.00
141;BME280;65;48.778;9.160;2023-11-25T15:58:28;97948.88;;;3.76;100.00
141;BME280;65;48.778;9.160;2023-11-25T16:01:14;97946.19;;;3.77;100.00
141;BME280;65;48.778;9.160;2023-11-25T16:04:02;97957.81;;;3.70;100.00
141;BME280;65;48.778;9.160;2023-11-25T16:06:48;97938.66;;;3.70;100.00
141;BME280;65;48.778;9.160;2023-11-25T16:09:33;97952.63;;;3.69;100.00
141;BME280;65;48.778;9.160;2023-11-25T16:12:21;97940.31;;;3.72;100.00
141;BME280;65;48.778;9.160;2023-11-25T16:15:07;97950.28;;;3.63;100.00
141;BME280;65;48.778;9.160;2023-11-25T16:17:56;97950.31;;;3.61;100.00
141;BME280;65;48.778;9.160;2023-11-25T16:20:42;97943.28;;;3.63;100.00
141;BME280;65;48.778;9.160;2023-11-25T16:23:29;97952.09;;;3.61;100.00
141;BME280;65;48.778;9.160;2023-11-25T16:26:15;97954.59;;;3.64;100.00
141;BME280;65;48.778;9.160;2023-11-25T16:29:02;97952.22;;;3.58;100.00
141;BME280;65;48.778;9.160;2023-11-25T16:31:49;97957.44;;;3.58;100.00
141;BME280;65;48.778;9.160;2023-11-25T16:34:34;97953.84;;;3.60;100.00
141;BME280;65;48.778;9.160;2023-11-25T16:37:20;97948.75;;;3.57;100.00
141;BME280;65;48.778;9.160;2023-11-25T16:40:08;97957.19;;;3.64;100.00
141;BME280;65;48.778;9.160;2023-11-25T16:42:54;97951.91;;;3.65;100.00
141;BME280;65;48.778;9.160;2023-11-25T16:45:40;97944.13;;;3.64;100.00
141;BME280;65;48.778;9.160;2023-11-25T16:48:26;97947.53;;;3.66;100.00
141;BME280;65;48.778;9.160;2023-11-25T16:51:11;97941.47;;;3.65;100.00
141;BME280;65;48.778;9.160;2023-11-25T16:53:57;97949.06;;;3.71;100.00
141;BME280;65;48.778;9.160;2023-11-25T16:56:43;97944.06;;;3.65;100.00
141;BME280;65;48.778;9.160;2023-11-25T16:59:32;97949.47;;;3.61;100.00
141;BME280;65;48.778;9.160;2023-11-25T17:02:19;97937.25;;;3.61;100.00
141;BME280;65;48.778;9.160;2023-11-25T17:05:08;97946.88;;;3.61;100.00
141;BME280;65;48.778;9.160;2023-11-25T17:07:53;97948.56;;;3.62;100.00
141;BME280;65;48.778;9.160;2023-11-25T17:10:39;97954.81;;;3.58;100.00
141;BME280;65;48.778;9.160;2023-11-25T17:13:25;97948.81;;;3.56;100.00
141;BME280;65;48.778;9.160;2023-11-25T17:16:11;97959.31;;;3.54;100.00
141;BME280;65;48.778;9.160;2023-11-25T17:19:00;97962.47;;;3.62;100.00
141;BME280;65;48.778;9.160;2023-11-25T17:21:46;97965.16;;;3.61;100.00
141;BME280;65;48.778;9.160;2023-11-25T17:24:33;97950.28;;;3.63;100.00
141;BME280;65;48.778;9.160;2023-11-25T17:27:20;97960.72;;;3.63;100.00
141;BME280;65;48.778;9.160;2023-11-25T17:30:06;97968.94;;;3.75;100.00
141;BME280;65;48.778;9.160;2023-11-25T17:32:52;97962.84;;;3.75;100.00
141;BME280;65;48.778;9.160;2023-11-25T17:35:39;97960.91;;;3.80;100.00
141;BME280;65;48.778;9.160;2023-11-25T17:38:25;97963.69;;;3.75;100.00